• Join FlightAware (Why Join?)
  • Login
  • US Flag 
07:01AM EDT


 

Airport Tracker/Info


-or-


 

Live Flight TrackerFlight Track Log ✈ N770NC ✈ 06-Jun-2013 ✈ KATL - KORD

Flight Track Log - Related Links

Times and Time Zones

All times are in EDT time to prevent confusion due to time zone crossing. See the N770NC flight status page for this flight to view local times or setup timezone preferences in your user account.

Time Position Orientation Groundspeed Altitude Reporting Facility
EDT Latitude Longitude Course Direction KTS MPH feet Rate Location/Type
01:54PM 33.6500 -84.3833 349° North 187 215 2,000  Level Atlanta TRACON
01:55PM 33.7000 -84.3500 29° Northeast 263 303 3,500 1,980 Climbing Atlanta TRACON
01:56PM 33.7833 -84.3000 27° Northeast 279 321 6,000 2,280 Climbing Atlanta TRACON
01:57PM 34.0839 -84.5335 349° North  Level FlightAware Approximate
01:57PM 33.8500 -84.3333 337° Northwest 284 327 8,100  Level Atlanta TRACON
01:58PM 34.1897 -84.5637 347° North  Level FlightAware Approximate
01:59PM 34.3016 -84.5897 349° North  Level FlightAware Approximate
01:59PM 33.9461 -84.4144 325° Northwest 291 335 11,200  Level Atlanta Center
02:00PM 34.0211 -84.4622 332° Northwest 304 350 12,800 1,260 Climbing Atlanta Center
02:01PM 34.1042 -84.5206 330° Northwest 329 379 13,800 960 Climbing Atlanta Center
02:02PM 34.2022 -84.5686 338° Northwest 360 414 14,800 1,020 Climbing Atlanta Center
02:03PM 34.3128 -84.5894 351° North 390 449 15,900 900 Climbing Atlanta Center
02:04PM 34.4192 -84.5978 356° North 408 470 16,700 1,020 Climbing Atlanta Center
02:05PM 34.5400 -84.6111 355° North 426 490 18,000 1,140 Climbing Atlanta Center
02:06PM 34.6589 -84.6397 349° North 426 490 19,000 1,020 Climbing Atlanta Center
02:07PM 34.7714 -84.6911 339° North 426 490 20,100 1,080 Climbing Atlanta Center
02:08PM 34.8922 -84.7328 344° North 439 505 21,200 1,140 Climbing Atlanta Center
02:09PM 35.0172 -84.7667 347° North 445 512 22,400 900 Climbing Atlanta Center
02:10PM 35.1422 -84.7931 350° North 451 519 23,000 360 Climbing Atlanta Center
02:11PM 35.2778 -84.8097 354° North 462 532 23,200 480 Climbing Atlanta Center
02:12PM 35.4156 -84.8008 North 474 545 24,000 720 Climbing Atlanta Center
02:13PM 35.5533 -84.7969 North 486 559 24,700 780 Climbing Atlanta Center
02:14PM 35.6889 -84.8058 357° North 486 559 25,600 1,320 Climbing Atlanta Center
02:15PM 35.8347 -84.8200 355° North 486 559 27,400 1,680 Climbing Atlanta Center
02:15PM 35.9225 -84.8819 330° Northwest 458 527 28,800 1,020 Climbing Indianapolis Center
02:16PM 36.0419 -84.9169 347° North 429 494 29,400 540 Climbing Indianapolis Center
02:17PM 36.1581 -84.9419 350° North 424 488 30,000 240 Climbing Indianapolis Center
02:18PM 36.2778 -84.9625 352° North 431 496 30,000 -540 Level Indianapolis Center
02:19PM 36.3989 -84.9822 353° North 437 503 28,900 -1,860 Descending Indianapolis Center
02:21PM 36.5400 -85.0197 348° North 431 496 26,200 -1,440 Descending Indianapolis Center
02:22PM 36.6600 -85.0628 344° North 445 512 26,000 -120 Descending Indianapolis Center
02:23PM 36.7769 -85.1192 339° North 451 519 26,000  Level Indianapolis Center
02:24PM 36.8942 -85.1739 340° North 448 516 26,000  Level Indianapolis Center
02:25PM 37.0133 -85.2233 342° North 449 517 26,000  Level Indianapolis Center
02:26PM 37.1375 -85.2619 346° North 456 525 26,000  Level Indianapolis Center
02:27PM 37.2611 -85.3056 344° North 458 527 26,000  Level Indianapolis Center
02:28PM 37.4078 -85.3522 346° North 463 533 26,000  Level Indianapolis Center
02:29PM 37.5325 -85.3958 345° North 464 534 26,000  Level Indianapolis Center
02:30PM 37.6589 -85.4358 346° North 466 536 26,000  Level Indianapolis Center
02:31PM 37.7861 -85.4800 345° North 470 541 26,000  Level Indianapolis Center
02:32PM 37.9275 -85.5264 345° North 477 549 26,000  Level Indianapolis Center
02:33PM 38.0603 -85.5464 353° North 479 551 26,000  Level Indianapolis Center
02:34PM 38.1936 -85.5631 354° North 481 554 26,000  Level Indianapolis Center
02:35PM 38.3231 -85.5961 349° North 476 548 26,000  Level Indianapolis Center
02:36PM 38.4603 -85.5919 North 490 564 26,000  Level Indianapolis Center
02:37PM 38.5956 -85.5928 360° North 488 562 26,000  Level Indianapolis Center
02:38PM 38.7317 -85.6017 357° North 489 563 26,000  Level Indianapolis Center
02:39PM 38.8967 -85.6036 359° North 492 566 26,000  Level Indianapolis Center
02:40PM 39.0342 -85.6097 358° North 492 566 26,000  Level Indianapolis Center
02:41PM 39.1683 -85.6147 358° North 484 557 26,000  Level Indianapolis Center
02:42PM 39.3011 -85.6086 North 480 552 26,000  Level Indianapolis Center
02:43PM 39.4342 -85.6036 North 478 550 26,000  Level Indianapolis Center
02:44PM 39.5675 -85.6114 357° North 477 549 26,000 -60 Level Indianapolis Center
02:45PM 39.7106 -85.6058 North 472 543 25,900  Descending Indianapolis Center
02:46PM 39.8444 -85.6058 360° North 475 547 26,000  Climbing Indianapolis Center
02:47PM 39.9733 -85.6236 354° North 467 537 26,000 -360 Level Indianapolis Center
02:48PM 40.1275 -85.6378 356° North 475 547 25,300 -960 Descending Indianapolis Center
02:49PM 40.2667 -85.6203 North 493 567 24,100 -720 Descending Indianapolis Center
02:50PM 40.3750 -85.6328 355° North 484 557 24,000 -60 Descending Chicago Center
02:51PM 40.4928 -85.6836 342° North 456 525 24,000 -60 Level Chicago Center
02:52PM 40.5625 -85.8056 307° West 423 487 23,900 -480 Descending Chicago Center
02:53PM 40.6361 -85.9294 308° West 426 490 23,100 -780 Descending Chicago Center
02:54PM 40.7144 -86.0547 310° West 440 506 22,300 -780 Descending Chicago Center
02:55PM 40.8100 -86.1958 312° West 434 499 21,500 -780 Descending Chicago Center
02:56PM 40.8861 -86.3114 311° West 421 484 20,800 -600 Descending Chicago Center
02:57PM 40.9608 -86.4331 309° West 424 488 20,300 -420 Descending Chicago Center
02:59PM 41.0369 -86.5542 310° West 425 489 20,000 -720 Descending Chicago Center
03:00PM 41.1108 -86.6789 308° West 429 494 18,900 -1,800 Descending Chicago Center
03:01PM 41.2019 -86.8072 313° West 414 476 16,300 -2,280 Descending Chicago Center
03:02PM 41.2711 -86.9103 312° West 382 440 14,200 -1,740 Descending Chicago Center
03:03PM 41.3358 -87.0203 308° West 381 438 12,800 -1,260 Descending Chicago Center
03:04PM 41.4003 -87.1206 311° West 364 419 11,600 -900 Descending Chicago Center
03:05PM 41.4756 -87.2311 312° West 342 394 11,000 -300 Descending Chicago Center
03:06PM 41.5375 -87.3275 311° West 346 398 11,000 -60 Level Chicago Center
03:07PM 41.5964 -87.4197 311° West 333 383 10,900 -840 Descending Chicago Center
03:08PM 41.6514 -87.4900 316° Northwest 286 329 9,300 -1,560 Descending Chicago Center
03:09PM 41.7086 -87.5597 318° Northwest 282 325 7,700 -1,080 Descending Chicago Center
03:10PM 41.7786 -87.6325 322° Northwest 268 308 7,100 -300 Descending Chicago Center
03:11PM 41.8292 -87.6822 324° Northwest 234 269 7,100  Level Chicago Center
03:12PM 41.8300 -87.7561 271° West 203 234 7,100 -60 Level Chicago Center
03:13PM 41.8294 -87.8283 269° West 196 226 7,000 -600 Descending Chicago Center
03:14PM 41.8125 -87.9058 254° West 191 220 5,900 -960 Descending Chicago Center
03:15PM 41.7867 -87.9653 240° Southwest 188 216 5,000 -480 Descending Chicago Center
03:16PM 41.7589 -88.0236 237° Southwest 188 216 5,000 -300 Level Chicago Center
03:17PM 41.7722 -88.0822 287° West 185 213 4,400 -540 Descending Chicago Center
03:18PM 41.8100 -88.0708 13° North 193 222 4,000 -420 Descending Chicago Center